Hamilton, Ohio
Current Conditions -  °F | °C
As of 3:53 AM on Wednesday 22 Oct 2014 (Local Time) from KHAO Reporting Station
Overcast Overcast  
Wind Chill: 43°   Ceiling: 4100
Heat Index: 46°   Visibility: 10mi
Dew Point: 39°   Wind: 6mph
Humidity: 76%   Direction: 340°NNW
Pressure: 30.21"   Gusts: NA
Location:  39.4°N, 84.56°W
Report Text: KHAO 220753Z AUTO 34005KT 10SM OVC041 08/04 A3021 RMK AO2 SLP232 T00780039
Loading
Personal Weather Stations






























Interactive Weather Map
Tropical Storm Tracking
New forecast layout! Learn more

10-Day Weather Forecast

Advertisements
Track Severe Weather on mobile